Time;durP1;ratioP1;P1;durP2;ratioP2;P2;SDS_P1;SDS_P2;PMS_P1;PMS_P2;Temp;Humidity;BMP_temperature;BMP_pressure;BME280_temperature;BME280_humidity;BME280_pressure;Samples;Min_cycle;Max_cycle;Signal;HPM_P1;HPM_P2
2022/08/28 00:00:13;;;;;;;4.30;3.80;;;21.40;71.40;;;;;;5086239;28;20475;-49
2022/08/28 00:02:40;;;;;;;4.60;4.10;;;21.40;71.80;;;;;;5067045;28;20461;-49
2022/08/28 00:05:10;;;;;;;5.77;3.73;;;21.40;71.10;;;;;;5084873;28;20456;-48
2022/08/28 00:07:37;;;;;;;4.20;3.63;;;21.40;71.50;;;;;;5067396;28;20472;-49
2022/08/28 00:10:05;;;;;;;4.90;4.00;;;21.50;71.50;;;;;;5085211;28;20484;-49
2022/08/28 00:12:34;;;;;;;4.07;3.77;;;21.40;71.10;;;;;;5087549;28;20461;-49
2022/08/28 00:15:03;;;;;;;5.80;3.77;;;21.40;71.70;;;;;;5086264;28;20972;-49
2022/08/28 00:17:30;;;;;;;6.77;4.17;;;21.40;71.10;;;;;;5089314;28;20456;-48
2022/08/28 00:19:56;;;;;;;4.50;4.00;;;21.40;71.50;;;;;;5089420;28;20483;-48
2022/08/28 00:22:23;;;;;;;5.50;4.50;;;21.50;70.90;;;;;;5066114;28;20460;-49
2022/08/28 00:24:50;;;;;;;6.17;4.03;;;21.50;71.00;;;;;;5088508;28;20472;-48
2022/08/28 00:30:06;;;;;;;4.50;4.00;;;21.40;70.40;;;;;;5089680;28;20830;-49
2022/08/28 00:32:34;;;;;;;4.70;3.70;;;21.40;70.10;;;;;;5073264;28;20444;-49
2022/08/28 00:35:01;;;;;;;3.80;3.50;;;21.40;69.80;;;;;;5069850;28;20457;-49
2022/08/28 00:37:28;;;;;;;4.77;4.27;;;21.40;69.80;;;;;;5090553;28;20448;-49
2022/08/28 00:39:55;;;;;;;4.40;3.90;;;21.40;69.80;;;;;;5086042;28;20473;-49
2022/08/28 00:42:21;;;;;;;5.90;4.20;;;21.50;70.20;;;;;;5088241;28;20479;-48
2022/08/28 00:44:48;;;;;;;4.20;3.80;;;21.40;69.80;;;;;;5088153;28;20468;-49
2022/08/28 00:47:15;;;;;;;4.37;3.97;;;21.40;69.90;;;;;;5085545;28;20826;-49
2022/08/28 00:49:49;;;;;;;5.50;3.90;;;21.50;69.80;;;;;;5087139;28;20903;-48
2022/08/28 00:52:17;;;;;;;4.33;3.80;;;21.50;69.60;;;;;;5088794;28;20457;-49
2022/08/28 00:54:50;;;;;;;4.83;3.73;;;21.40;69.40;;;;;;5087512;28;20487;-49
2022/08/28 00:57:29;;;;;;;4.70;4.13;;;21.40;70.30;;;;;;5086895;28;20479;-49
2022/08/28 00:59:56;;;;;;;4.73;3.90;;;21.50;70.00;;;;;;5071586;28;20665;-49
2022/08/28 01:02:23;;;;;;;5.33;3.57;;;21.50;70.20;;;;;;5089467;28;20464;-49
2022/08/28 01:04:50;;;;;;;4.63;3.53;;;21.50;70.20;;;;;;5083823;28;20506;-49
2022/08/28 01:07:17;;;;;;;4.73;4.17;;;21.60;70.00;;;;;;5088778;28;20475;-49
2022/08/28 01:09:47;;;;;;;3.80;3.50;;;21.50;70.20;;;;;;5087299;28;20488;-49
2022/08/28 01:12:21;;;;;;;4.23;3.63;;;21.40;70.00;;;;;;5088122;28;20472;-48
2022/08/28 01:14:50;;;;;;;3.80;3.50;;;21.50;70.60;;;;;;5064905;28;20460;-49
2022/08/28 01:17:22;;;;;;;4.43;3.97;;;21.40;70.20;;;;;;5082379;28;20478;-49
2022/08/28 01:19:57;;;;;;;3.53;2.93;;;21.40;69.10;;;;;;5073344;28;22577;-49
2022/08/28 01:22:31;;;;;;;3.43;3.13;;;21.40;69.10;;;;;;5083029;28;20965;-49
2022/08/28 01:25:00;;;;;;;3.23;2.93;;;21.30;69.00;;;;;;5086663;28;20460;-49
2022/08/28 01:27:28;;;;;;;3.87;3.50;;;21.40;69.50;;;;;;5065334;28;20464;-49
2022/08/28 01:29:54;;;;;;;3.50;3.20;;;21.40;69.90;;;;;;5070178;28;20542;-49
2022/08/28 01:32:38;;;;;;;4.40;3.93;;;21.50;69.50;;;;;;5069196;28;20456;-49
2022/08/28 01:35:09;;;;;;;4.60;4.10;;;21.40;69.10;;;;;;5072213;28;20455;-49
2022/08/28 01:37:36;;;;;;;5.10;3.20;;;21.40;69.40;;;;;;5071412;28;20457;-49
2022/08/28 01:40:07;;;;;;;4.37;3.97;;;21.50;69.00;;;;;;5068668;28;20456;-49
2022/08/28 01:42:43;;;;;;;3.70;3.40;;;21.40;69.50;;;;;;5087419;28;20957;-49
2022/08/28 01:45:13;;;;;;;5.20;3.67;;;21.40;70.20;;;;;;5072162;28;20986;-49
2022/08/28 01:47:42;;;;;;;5.37;3.77;;;21.40;69.70;;;;;;5084091;28;20456;-49
2022/08/28 01:50:12;;;;;;;3.80;3.50;;;21.40;70.30;;;;;;5069052;28;20867;-49
2022/08/28 01:52:40;;;;;;;4.33;3.67;;;21.40;69.80;;;;;;5062967;28;20453;-49
2022/08/28 01:55:08;;;;;;;5.37;4.30;;;21.40;69.70;;;;;;5081917;28;20472;-50
2022/08/28 01:57:42;;;;;;;4.53;3.87;;;21.40;70.50;;;;;;5083772;28;20468;-49
2022/08/28 02:00:10;;;;;;;4.90;3.80;;;21.30;69.90;;;;;;5085126;28;20467;-49
2022/08/28 02:02:37;;;;;;;6.43;3.77;;;21.30;70.40;;;;;;5088664;28;20596;-49
2022/08/28 02:05:04;;;;;;;5.23;3.57;;;21.20;69.80;;;;;;5083785;28;20473;-49
2022/08/28 02:07:31;;;;;;;4.63;3.23;;;21.20;69.60;;;;;;5069905;28;20814;-49
2022/08/28 02:09:57;;;;;;;5.43;3.80;;;21.30;69.90;;;;;;5081018;28;20476;-49
2022/08/28 02:12:24;;;;;;;3.50;3.17;;;21.40;69.70;;;;;;5087850;28;20819;-49
2022/08/28 02:14:51;;;;;;;5.00;3.27;;;21.40;70.10;;;;;;5069237;28;20461;-49
2022/08/28 02:17:18;;;;;;;4.03;3.63;;;21.40;69.90;;;;;;5083022;28;20456;-49
2022/08/28 02:19:44;;;;;;;4.20;3.77;;;21.40;69.80;;;;;;5087476;28;20455;-49
2022/08/28 02:22:12;;;;;;;3.80;2.93;;;21.40;69.10;;;;;;5085998;28;20461;-49
2022/08/28 02:24:39;;;;;;;4.57;3.70;;;21.40;70.20;;;;;;5069512;28;20459;-49
2022/08/28 02:27:05;;;;;;;3.93;3.53;;;21.40;70.20;;;;;;5087022;28;20970;-49
2022/08/28 02:29:32;;;;;;;3.93;3.53;;;21.40;69.90;;;;;;5087058;28;20491;-49
2022/08/28 02:31:59;;;;;;;5.00;3.77;;;21.40;69.40;;;;;;5087161;28;20467;-49
2022/08/28 02:34:25;;;;;;;6.77;4.00;;;21.40;69.50;;;;;;5064994;28;20464;-49
2022/08/28 02:36:52;;;;;;;4.33;3.93;;;21.40;69.40;;;;;;5085718;28;20448;-49
2022/08/28 02:39:19;;;;;;;7.80;4.00;;;21.30;69.60;;;;;;5084507;28;20815;-49
2022/08/28 02:41:45;;;;;;;3.80;3.50;;;21.40;70.20;;;;;;5087479;28;20832;-49
2022/08/28 02:44:12;;;;;;;6.30;4.30;;;21.40;70.40;;;;;;5082562;28;20461;-49
2022/08/28 02:46:39;;;;;;;5.10;4.40;;;21.40;69.70;;;;;;5087854;28;20460;-49
2022/08/28 02:49:05;;;;;;;4.53;4.20;;;21.40;69.60;;;;;;5070843;28;20440;-49
2022/08/28 02:51:33;;;;;;;5.93;3.93;;;21.40;70.50;;;;;;5085934;28;20507;-49
2022/08/28 02:54:00;;;;;;;4.60;4.20;;;21.30;70.70;;;;;;5082876;28;20727;-49
2022/08/28 02:56:27;;;;;;;5.27;4.77;;;21.30;70.20;;;;;;5064967;28;20457;-49
2022/08/28 02:58:54;;;;;;;5.10;4.60;;;21.30;70.40;;;;;;5085636;28;20457;-49
2022/08/28 03:01:22;;;;;;;5.67;4.57;;;21.20;70.20;;;;;;5082639;28;20464;-49
2022/08/28 03:03:49;;;;;;;5.00;4.60;;;21.20;70.60;;;;;;5083755;28;20449;-49
2022/08/28 03:06:15;;;;;;;4.03;3.47;;;21.20;70.10;;;;;;5072154;28;20461;-49
2022/08/28 03:08:43;;;;;;;4.80;3.90;;;21.20;69.90;;;;;;5086393;28;20475;-49
2022/08/28 03:11:10;;;;;;;4.70;4.30;;;21.20;70.20;;;;;;5084428;28;20488;-49
2022/08/28 03:13:37;;;;;;;6.57;3.80;;;21.20;70.50;;;;;;5085426;28;20552;-49
2022/08/28 03:16:04;;;;;;;6.37;4.20;;;21.20;70.20;;;;;;5082319;28;20467;-48
2022/08/28 03:18:31;;;;;;;4.33;3.93;;;21.20;70.10;;;;;;5069913;28;20829;-49
2022/08/28 03:20:59;;;;;;;5.90;3.73;;;21.20;70.40;;;;;;5083367;28;21124;-48
2022/08/28 03:23:26;;;;;;;4.63;3.40;;;21.20;70.10;;;;;;5083955;28;20456;-49
2022/08/28 03:25:56;;;;;;;4.40;4.00;;;21.20;70.10;;;;;;5087982;28;20980;-49
2022/08/28 03:28:24;;;;;;;4.70;3.67;;;21.20;70.50;;;;;;5083993;28;20465;-48
2022/08/28 03:30:51;;;;;;;4.67;4.23;;;21.20;70.40;;;;;;5068104;28;20496;-48
2022/08/28 03:33:19;;;;;;;5.33;4.00;;;21.20;70.10;;;;;;5082881;28;20466;-49
2022/08/28 03:35:46;;;;;;;6.30;4.47;;;21.20;70.10;;;;;;5067327;28;20461;-49
2022/08/28 03:38:12;;;;;;;5.13;3.80;;;21.10;70.30;;;;;;5088575;28;20945;-49
2022/08/28 03:40:45;;;;;;;4.80;4.00;;;21.10;70.30;;;;;;5086653;28;20460;-49
2022/08/28 03:43:19;;;;;;;4.43;3.87;;;21.10;70.10;;;;;;5070917;28;20465;-48
2022/08/28 03:45:59;;;;;;;5.83;4.53;;;21.10;70.50;;;;;;5069050;28;20465;-48
2022/08/28 03:48:29;;;;;;;4.80;4.20;;;21.10;70.60;;;;;;5072439;28;20980;-49
2022/08/28 03:50:56;;;;;;;4.40;3.53;;;21.00;70.30;;;;;;5087208;28;20480;-49
2022/08/28 03:53:25;;;;;;;4.53;3.83;;;21.00;70.30;;;;;;5087205;28;20460;-48
2022/08/28 03:55:52;;;;;;;4.33;3.90;;;21.00;70.50;;;;;;5064372;28;20460;-49
2022/08/28 03:58:19;;;;;;;5.87;4.00;;;21.00;70.60;;;;;;5072424;28;20464;-49
2022/08/28 04:00:45;;;;;;;6.90;3.70;;;21.00;70.60;;;;;;5055659;28;20749;-49
2022/08/28 04:03:12;;;;;;;7.30;4.30;;;21.00;70.80;;;;;;5072230;28;20460;-49
2022/08/28 04:05:41;;;;;;;7.10;3.77;;;21.00;71.30;;;;;;5067161;28;20460;-49
2022/08/28 04:08:09;;;;;;;5.63;3.83;;;21.00;71.10;;;;;;5072701;28;20475;-49
2022/08/28 04:10:36;;;;;;;7.17;3.90;;;21.00;71.10;;;;;;5084721;28;21673;-49
2022/08/28 04:13:03;;;;;;;9.30;3.93;;;21.00;71.40;;;;;;5085803;28;20454;-49
2022/08/28 04:15:30;;;;;;;4.00;3.60;;;21.00;71.10;;;;;;5083334;28;21268;-49
2022/08/28 04:17:56;;;;;;;3.43;3.13;;;21.00;71.60;;;;;;5085173;28;20793;-49
2022/08/28 04:20:23;;;;;;;3.90;3.20;;;21.00;71.60;;;;;;5086653;28;20956;-49
2022/08/28 04:22:50;;;;;;;4.57;3.47;;;21.00;71.30;;;;;;5070168;28;20464;-49
2022/08/28 04:25:21;;;;;;;5.50;3.60;;;20.90;70.70;;;;;;5085413;28;20463;-49
2022/08/28 04:27:49;;;;;;;5.20;3.00;;;20.80;70.80;;;;;;5070466;28;20460;-49
2022/08/28 04:30:16;;;;;;;8.63;3.50;;;20.80;70.70;;;;;;5086922;28;20831;-49
2022/08/28 04:32:43;;;;;;;6.37;3.20;;;20.80;70.80;;;;;;5080474;28;20801;-49
2022/08/28 04:35:11;;;;;;;7.50;3.57;;;20.80;70.70;;;;;;5063978;28;20452;-49
2022/08/28 04:37:39;;;;;;;8.00;3.90;;;20.80;71.00;;;;;;5085029;28;20463;-49
2022/08/28 04:40:09;;;;;;;5.17;2.80;;;20.90;70.90;;;;;;5086486;28;20487;-49
2022/08/28 04:42:38;;;;;;;6.50;3.40;;;20.80;70.80;;;;;;5089187;28;20946;-49
2022/08/28 04:45:06;;;;;;;5.33;3.33;;;20.80;70.70;;;;;;5087344;28;20464;-49
2022/08/28 04:47:37;;;;;;;5.17;3.03;;;20.80;70.70;;;;;;5066913;28;20460;-49
2022/08/28 04:50:05;;;;;;;5.20;2.60;;;20.80;70.80;;;;;;5087384;28;20468;-49
2022/08/28 04:52:32;;;;;;;3.63;2.67;;;20.80;71.50;;;;;;5069093;28;20463;-49
2022/08/28 04:54:59;;;;;;;4.07;3.07;;;20.80;70.70;;;;;;5067317;28;20844;-49
2022/08/28 04:57:26;;;;;;;5.27;3.37;;;20.70;70.70;;;;;;5087253;28;21003;-49
2022/08/28 04:59:52;;;;;;;5.43;3.10;;;20.70;70.50;;;;;;5083910;28;20894;-49
2022/08/28 05:02:19;;;;;;;4.17;2.33;;;20.70;70.60;;;;;;5087297;28;20469;-49
2022/08/28 05:04:46;;;;;;;3.40;2.60;;;20.70;70.70;;;;;;5083700;28;20456;-49
2022/08/28 05:07:14;;;;;;;4.03;2.93;;;20.70;70.80;;;;;;5067747;28;20922;-49
2022/08/28 05:09:40;;;;;;;5.37;2.60;;;20.70;70.70;;;;;;5072179;28;20468;-49
2022/08/28 05:12:07;;;;;;;6.30;4.00;;;20.70;70.60;;;;;;5066590;28;20497;-49
2022/08/28 05:14:35;;;;;;;8.00;2.57;;;20.70;70.40;;;;;;5068293;28;20449;-49
2022/08/28 05:17:02;;;;;;;7.70;3.80;;;20.70;70.40;;;;;;5082044;28;20969;-49
2022/08/28 05:19:28;;;;;;;4.00;2.77;;;20.70;70.50;;;;;;5082677;28;20461;-49
2022/08/28 05:21:55;;;;;;;6.13;2.77;;;20.70;70.20;;;;;;5065581;28;20457;-48
2022/08/28 05:24:22;;;;;;;4.37;2.80;;;20.70;70.10;;;;;;5068077;28;20460;-48
2022/08/28 05:26:49;;;;;;;4.70;2.57;;;20.80;70.20;;;;;;5084469;28;20470;-48
2022/08/28 05:29:16;;;;;;;4.60;2.80;;;20.80;70.20;;;;;;5082386;28;20482;-48
2022/08/28 05:31:43;;;;;;;3.17;2.73;;;20.80;70.40;;;;;;5063835;28;20492;-48
2022/08/28 05:34:12;;;;;;;6.67;3.07;;;20.70;70.10;;;;;;5081917;28;20489;-48
2022/08/28 05:36:39;;;;;;;4.00;3.50;;;20.70;70.40;;;;;;5082850;28;20530;-48
2022/08/28 05:39:09;;;;;;;4.10;2.57;;;20.70;70.00;;;;;;5066625;28;20479;-49
2022/08/28 05:41:40;;;;;;;4.10;2.70;;;20.70;70.40;;;;;;5084649;28;20460;-48
2022/08/28 05:44:09;;;;;;;9.50;3.33;;;20.70;70.10;;;;;;5085699;28;20471;-48
2022/08/28 05:46:38;;;;;;;8.90;3.20;;;20.70;70.00;;;;;;5084649;28;21263;-49
2022/08/28 05:49:06;;;;;;;6.87;3.73;;;20.70;69.90;;;;;;5083312;28;20468;-49
2022/08/28 05:51:39;;;;;;;6.03;3.10;;;20.70;69.80;;;;;;5079861;28;20488;-49
2022/08/28 05:54:06;;;;;;;5.03;2.87;;;20.70;69.70;;;;;;5080398;28;20457;-48
2022/08/28 05:56:36;;;;;;;3.07;2.70;;;20.80;69.60;;;;;;5078339;28;20445;-49
2022/08/28 05:59:04;;;;;;;6.20;3.17;;;20.80;69.40;;;;;;5080578;28;20460;-49
2022/08/28 06:01:34;;;;;;;3.00;2.30;;;20.90;69.80;;;;;;5080590;28;20464;-49
2022/08/28 06:04:09;;;;;;;4.73;2.90;;;20.90;69.30;;;;;;5084976;28;20526;-48
2022/08/28 06:06:38;;;;;;;5.93;2.53;;;20.90;70.20;;;;;;5067729;28;20436;-48
2022/08/28 06:09:11;;;;;;;3.70;2.93;;;20.90;69.90;;;;;;5083325;28;20460;-48
2022/08/28 06:11:38;;;;;;;5.77;3.30;;;20.90;69.40;;;;;;5084407;28;20898;-48
2022/08/28 06:14:13;;;;;;;4.57;2.90;;;20.90;69.40;;;;;;5063685;28;20955;-48
2022/08/28 06:16:43;;;;;;;3.63;2.73;;;20.90;69.80;;;;;;5067410;28;20544;-48
2022/08/28 06:19:11;;;;;;;6.40;3.73;;;20.90;69.40;;;;;;5081960;28;20693;-48
2022/08/28 06:21:41;;;;;;;4.30;2.53;;;20.90;69.50;;;;;;5079027;28;20457;-48
2022/08/28 06:24:10;;;;;;;4.03;3.30;;;20.90;69.30;;;;;;5083752;28;20464;-48
2022/08/28 06:26:37;;;;;;;4.50;3.00;;;20.90;69.20;;;;;;5082397;28;20468;-49
2022/08/28 06:29:07;;;;;;;4.87;2.90;;;20.90;69.20;;;;;;5088170;28;20478;-48
2022/08/28 06:31:34;;;;;;;8.70;3.10;;;20.90;69.30;;;;;;5078514;28;20487;-48
2022/08/28 06:34:01;;;;;;;8.97;2.77;;;21.00;69.60;;;;;;5075602;28;20738;-48
2022/08/28 06:36:30;;;;;;;6.73;2.50;;;21.00;69.40;;;;;;5080464;28;20459;-48
2022/08/28 06:38:58;;;;;;;2.57;2.33;;;21.00;69.20;;;;;;5063257;28;20460;-48
2022/08/28 06:41:26;;;;;;;10.00;3.20;;;21.00;69.00;;;;;;5081649;28;20464;-48
2022/08/28 06:43:54;;;;;;;5.63;2.70;;;21.00;68.90;;;;;;5078977;28;20468;-48
2022/08/28 06:46:21;;;;;;;3.27;2.30;;;21.00;68.80;;;;;;5082117;28;20474;-49
2022/08/28 06:48:48;;;;;;;4.00;2.50;;;21.10;68.70;;;;;;5062691;28;20461;-48
2022/08/28 06:51:16;;;;;;;2.93;2.30;;;21.20;69.00;;;;;;5082141;28;20492;-48
2022/08/28 06:53:44;;;;;;;3.90;2.57;;;21.20;68.70;;;;;;5066414;28;20465;-49
2022/08/28 06:56:13;;;;;;;3.10;2.33;;;21.30;68.80;;;;;;5063566;28;20476;-49
2022/08/28 06:58:53;;;;;;;3.20;2.90;;;21.40;68.60;;;;;;5079588;28;20456;-48
2022/08/28 07:01:25;;;;;;;6.13;3.80;;;21.40;68.80;;;;;;5078188;28;20822;-49
2022/08/28 07:03:54;;;;;;;3.37;2.40;;;21.50;67.80;;;;;;5082630;28;20460;-49
2022/08/28 07:06:22;;;;;;;5.43;2.70;;;21.50;67.60;;;;;;5080687;28;20458;-49
2022/08/28 07:08:49;;;;;;;5.50;3.03;;;21.60;67.50;;;;;;5076314;28;20477;-49
2022/08/28 07:11:25;;;;;;;6.00;2.40;;;21.60;67.30;;;;;;5061683;28;20485;-49
2022/08/28 07:13:53;;;;;;;4.07;2.70;;;21.70;66.70;;;;;;5081695;28;20459;-49
2022/08/28 07:16:23;;;;;;;4.80;3.27;;;21.70;66.50;;;;;;5080614;28;22561;-48
2022/08/28 07:18:50;;;;;;;8.97;3.17;;;21.70;66.60;;;;;;5081501;28;20461;-49
2022/08/28 07:21:17;;;;;;;5.67;3.27;;;21.70;66.90;;;;;;5088004;28;20460;-48
2022/08/28 07:23:45;;;;;;;4.07;2.70;;;21.70;66.80;;;;;;5068195;28;20470;-49
2022/08/28 07:26:22;;;;;;;5.40;3.33;;;21.80;66.70;;;;;;5072719;28;20873;-48
2022/08/28 07:28:51;;;;;;;6.57;2.27;;;21.90;66.50;;;;;;5072707;28;20456;-48
2022/08/28 07:31:36;;;;;;;5.17;3.30;;;21.90;66.40;;;;;;5093178;28;20483;-48
2022/08/28 07:34:03;;;;;;;3.60;2.87;;;22.00;66.30;;;;;;5071226;28;20460;-48
2022/08/28 07:36:30;;;;;;;3.57;2.47;;;22.10;66.30;;;;;;5071656;28;20449;-49
2022/08/28 07:38:58;;;;;;;5.33;2.20;;;22.20;66.00;;;;;;5073814;28;20875;-49
2022/08/28 07:41:29;;;;;;;5.77;2.60;;;22.30;65.40;;;;;;5089678;28;20452;-49
2022/08/28 07:46:43;;;;;;;7.47;3.07;;;22.50;64.90;;;;;;5075138;28;20968;-48
2022/08/28 07:49:10;;;;;;;6.00;2.80;;;22.50;64.80;;;;;;5088077;28;20474;-48
2022/08/28 07:51:37;;;;;;;5.03;2.40;;;22.60;64.70;;;;;;5074451;28;20475;-49
2022/08/28 07:54:04;;;;;;;7.80;2.80;;;22.70;65.10;;;;;;5082845;28;20459;-48
2022/08/28 07:56:31;;;;;;;7.20;3.20;;;22.80;64.30;;;;;;5072352;28;20458;-48
2022/08/28 07:58:59;;;;;;;4.80;2.63;;;22.90;63.80;;;;;;5072634;28;20471;-49
2022/08/28 08:01:29;;;;;;;3.30;2.63;;;22.90;64.30;;;;;;5087652;28;20455;-49
2022/08/28 08:03:57;;;;;;;4.50;2.80;;;23.00;64.60;;;;;;5083020;28;20542;-48
2022/08/28 08:06:30;;;;;;;3.00;2.50;;;23.10;64.10;;;;;;5090573;28;20463;-49
2022/08/28 08:09:00;;;;;;;8.63;2.60;;;23.10;63.50;;;;;;5093759;28;20463;-49
2022/08/28 08:11:28;;;;;;;4.47;2.80;;;23.20;64.00;;;;;;5069940;28;20526;-49
2022/08/28 08:14:03;;;;;;;7.00;2.70;;;23.20;63.10;;;;;;5073406;28;20479;-48
2022/08/28 08:16:34;;;;;;;5.27;2.60;;;23.30;63.30;;;;;;5058576;28;20957;-49
2022/08/28 08:19:02;;;;;;;4.80;3.17;;;23.40;63.20;;;;;;5086032;28;20452;-49
2022/08/28 08:21:31;;;;;;;4.70;2.60;;;23.50;63.00;;;;;;5070171;28;20479;-49
2022/08/28 08:23:58;;;;;;;8.07;3.10;;;23.50;62.20;;;;;;5087460;28;20460;-48
2022/08/28 08:26:27;;;;;;;5.63;2.40;;;23.60;61.80;;;;;;5088023;28;20487;-49
2022/08/28 08:28:55;;;;;;;5.80;2.40;;;23.60;62.40;;;;;;5068715;28;20459;-49
2022/08/28 08:31:25;;;;;;;6.77;2.80;;;23.70;62.20;;;;;;5086694;28;20702;-49
2022/08/28 08:33:56;;;;;;;3.43;2.67;;;23.70;62.10;;;;;;5069974;28;20464;-48
2022/08/28 08:36:25;;;;;;;8.33;2.37;;;23.80;60.70;;;;;;5084743;28;20460;-49
2022/08/28 08:38:53;;;;;;;3.33;2.53;;;23.90;61.70;;;;;;5083791;28;20459;-49
2022/08/28 08:41:48;;;;;;;5.17;2.97;;;23.90;61.00;;;;;;5062051;28;20452;-49
2022/08/28 08:44:55;;;;;;;3.60;3.17;;;24.00;60.40;;;;;;5064249;28;20828;-49
2022/08/28 08:47:54;;;;;;;3.67;2.80;;;24.10;60.40;;;;;;4990566;28;21623;-48
2022/08/28 08:50:29;;;;;;;3.97;2.73;;;24.00;61.10;;;;;;4984178;28;20462;-49
2022/08/28 08:53:38;;;;;;;6.00;2.73;;;24.00;59.50;;;;;;5065858;28;20490;-48
2022/08/28 08:56:05;;;;;;;4.87;2.60;;;23.90;60.10;;;;;;5083060;28;20465;-48
2022/08/28 08:58:35;;;;;;;8.60;2.73;;;23.90;60.60;;;;;;5089997;28;20988;-48
2022/08/28 09:01:33;;;;;;;5.80;2.90;;;23.90;60.00;;;;;;5067499;28;20467;-49
2022/08/28 09:04:12;;;;;;;3.13;2.60;;;23.80;59.90;;;;;;5067843;28;20461;-49
2022/08/28 09:07:04;;;;;;;5.40;3.57;;;23.70;60.60;;;;;;5064180;28;20464;-49
2022/08/28 09:09:37;;;;;;;5.80;2.70;;;23.70;59.80;;;;;;5076567;28;20453;-49
2022/08/28 09:12:12;;;;;;;4.87;3.10;;;23.60;60.20;;;;;;5086480;28;20488;-49
2022/08/28 09:15:08;;;;;;;6.23;2.97;;;23.60;60.70;;;;;;5071015;28;20454;-49
2022/08/28 09:17:41;;;;;;;4.57;2.90;;;23.60;60.80;;;;;;5086220;28;20456;-49
2022/08/28 09:20:11;;;;;;;5.10;3.77;;;23.70;58.60;;;;;;5086637;28;21101;-49
2022/08/28 09:22:43;;;;;;;4.90;3.03;;;23.70;58.50;;;;;;5072053;28;20451;-48
2022/08/28 09:25:31;;;;;;;6.77;2.90;;;23.80;58.10;;;;;;5065427;28;20475;-48
2022/08/28 09:28:07;;;;;;;6.70;2.80;;;23.90;58.10;;;;;;5090540;28;21051;-48
2022/08/28 09:30:34;;;;;;;5.87;3.97;;;24.10;57.90;;;;;;5071237;28;20463;-49
2022/08/28 09:33:01;;;;;;;3.10;2.47;;;24.20;58.10;;;;;;5070481;28;20481;-48
2022/08/28 09:35:30;;;;;;;4.87;2.93;;;24.40;57.60;;;;;;5088211;28;20455;-48
2022/08/28 09:38:17;;;;;;;9.00;2.57;;;24.50;57.20;;;;;;5087357;28;20452;-49
2022/08/28 09:43:34;;;;;;;3.57;2.57;;;24.80;56.20;;;;;;5088343;28;20444;-49
2022/08/28 09:46:15;;;;;;;4.33;2.60;;;24.90;54.50;;;;;;5070731;28;20578;-49
2022/08/28 09:48:43;;;;;;;3.47;2.60;;;25.00;54.40;;;;;;5085783;28;20819;-49
2022/08/28 09:51:21;;;;;;;3.40;2.40;;;25.10;54.30;;;;;;5084934;28;20860;-49
2022/08/28 09:53:51;;;;;;;4.00;2.13;;;25.10;54.10;;;;;;5069662;28;21088;-49
2022/08/28 09:56:29;;;;;;;7.90;3.00;;;25.20;54.00;;;;;;5089446;28;20439;-49
2022/08/28 09:59:01;;;;;;;4.40;2.20;;;25.20;53.70;;;;;;5085726;28;20888;-49
2022/08/28 10:01:42;;;;;;;3.33;2.40;;;25.20;53.80;;;;;;5052405;28;20436;-48
2022/08/28 10:04:30;;;;;;;4.50;2.57;;;25.30;53.90;;;;;;5086824;28;20454;-49
2022/08/28 10:07:09;;;;;;;4.63;2.40;;;25.50;53.40;;;;;;5075626;28;20474;-49
2022/08/28 10:09:47;;;;;;;4.60;2.53;;;25.60;53.60;;;;;;5076891;28;21166;-48
2022/08/28 10:12:35;;;;;;;5.07;2.40;;;25.70;53.00;;;;;;5080445;28;20492;-49
2022/08/28 10:15:49;;;;;;;2.93;2.17;;;25.80;52.90;;;;;;5063750;28;20985;-48
2022/08/28 10:18:30;;;;;;;3.20;2.63;;;25.90;52.40;;;;;;5086054;28;20456;-48
2022/08/28 10:21:27;;;;;;;2.80;2.40;;;26.00;51.50;;;;;;5063422;28;20577;-48
2022/08/28 10:24:18;;;;;;;8.63;3.20;;;26.00;52.20;;;;;;5061460;28;20475;-48
2022/08/28 10:26:56;;;;;;;3.80;2.70;;;25.90;51.30;;;;;;5084860;28;20564;-48
2022/08/28 10:29:32;;;;;;;6.40;2.50;;;25.80;51.60;;;;;;5062235;28;20565;-48
2022/08/28 10:32:02;;;;;;;3.77;2.50;;;25.70;52.60;;;;;;5085046;28;20492;-48
2022/08/28 10:34:45;;;;;;;4.83;2.60;;;25.60;51.80;;;;;;5082389;28;20464;-48
2022/08/28 10:37:43;;;;;;;2.70;2.50;;;25.60;52.00;;;;;;5069612;28;20456;-48
2022/08/28 10:40:36;;;;;;;6.77;2.43;;;25.80;52.20;;;;;;5088060;28;20464;-48
2022/08/28 10:43:37;;;;;;;2.70;1.77;;;26.60;50.70;;;;;;5051211;28;20468;-48
2022/08/28 10:46:11;;;;;;;5.00;2.50;;;27.70;47.50;;;;;;5031986;28;23042;-48
2022/08/28 10:48:51;;;;;;;4.87;2.00;;;27.90;46.90;;;;;;5065560;28;20933;-55
2022/08/28 10:51:32;;;;;;;5.50;2.23;;;27.70;46.90;;;;;;5066892;28;20844;-48
2022/08/28 10:54:27;;;;;;;3.07;2.10;;;27.30;47.90;;;;;;5082997;28;20480;-48
2022/08/28 10:57:07;;;;;;;3.83;2.47;;;27.10;48.70;;;;;;5083836;28;20472;-48
2022/08/28 10:59:35;;;;;;;3.60;2.60;;;26.80;48.70;;;;;;5085347;28;20478;-48
2022/08/28 11:02:12;;;;;;;3.43;2.90;;;26.50;51.90;;;;;;5082817;28;20460;-48
2022/08/28 11:04:39;;;;;;;4.23;2.10;;;26.30;50.90;;;;;;5080937;28;20467;-49
2022/08/28 11:07:10;;;;;;;5.83;2.23;;;26.10;49.60;;;;;;5080665;28;20672;-48
2022/08/28 11:09:41;;;;;;;3.47;2.03;;;26.00;50.40;;;;;;5083473;28;20451;-48
2022/08/28 11:12:28;;;;;;;2.83;2.30;;;;;;;;;;5079864;28;22356;-48
2022/08/28 11:14:55;;;;;;;2.77;2.20;;;;;;;;;;5068901;28;20468;-48
2022/08/28 11:17:32;;;;;;;6.60;3.03;;;;;;;;;;5081491;28;20913;-49
2022/08/28 11:19:59;;;;;;;6.80;2.60;;;;;;;;;;5075327;28;20203;-48
2022/08/28 11:22:34;;;;;;;2.87;2.27;;;;;;;;;;5070669;28;20632;-48
2022/08/28 11:25:20;;;;;;;4.80;2.17;;;;;;;;;;5079981;28;20459;-49
2022/08/28 11:28:17;;;;;;;3.23;2.40;;;27.40;48.90;;;;;;5057365;28;21074;-49
2022/08/28 11:30:46;;;;;;;6.17;2.50;;;26.80;50.90;;;;;;5053843;28;20475;-49
2022/08/28 11:33:39;;;;;;;6.03;3.27;;;26.40;50.00;;;;;;5086468;28;20658;-49
2022/08/28 11:36:21;;;;;;;3.17;1.97;;;26.10;50.60;;;;;;5052394;28;21056;-49
2022/08/28 11:38:51;;;;;;;7.83;2.83;;;26.00;50.80;;;;;;5083809;28;20463;-49
2022/08/28 11:41:28;;;;;;;3.47;2.87;;;25.90;50.90;;;;;;5061582;28;20467;-49
2022/08/28 11:44:07;;;;;;;2.40;2.17;;;25.80;50.60;;;;;;5062212;28;20460;-49
2022/08/28 11:46:37;;;;;;;3.20;2.27;;;25.70;51.90;;;;;;5082915;28;20471;-49
2022/08/28 11:49:33;;;;;;;3.70;2.50;;;25.50;51.90;;;;;;5079439;28;20518;-49
2022/08/28 11:52:09;;;;;;;3.73;2.60;;;25.40;53.40;;;;;;5085046;28;20495;-49
2022/08/28 11:54:52;;;;;;;4.07;2.30;;;25.30;54.40;;;;;;5066599;28;20952;-49
2022/08/28 11:57:44;;;;;;;6.27;2.57;;;25.30;54.20;;;;;;5085810;28;20480;-49
2022/08/28 12:00:38;;;;;;;5.60;2.87;;;25.20;53.00;;;;;;5065717;28;20456;-49
2022/08/28 12:03:05;;;;;;;3.93;2.60;;;25.20;54.40;;;;;;5059436;28;20463;-49
2022/08/28 12:05:32;;;;;;;3.80;2.23;;;25.10;53.70;;;;;;5059789;28;20464;-49
2022/08/28 12:08:01;;;;;;;3.53;2.47;;;25.10;54.30;;;;;;5088230;28;20476;-49
2022/08/28 12:10:29;;;;;;;8.73;3.00;;;25.10;53.50;;;;;;5072347;28;20823;-49
2022/08/28 12:12:59;;;;;;;5.47;2.87;;;25.10;53.50;;;;;;5088861;28;20491;-49
2022/08/28 12:15:26;;;;;;;4.47;2.53;;;25.10;53.90;;;;;;5086933;28;20836;-49
2022/08/28 12:17:59;;;;;;;3.37;2.27;;;25.10;52.70;;;;;;5086120;28;20841;-49
2022/08/28 12:20:49;;;;;;;4.37;2.40;;;25.10;53.90;;;;;;5067569;28;20452;-49
2022/08/28 12:23:22;;;;;;;2.50;2.30;;;25.10;53.50;;;;;;5084032;28;20728;-49
2022/08/28 12:26:01;;;;;;;5.10;2.07;;;25.10;54.30;;;;;;5081544;28;20460;-49
2022/08/28 12:28:32;;;;;;;4.00;2.60;;;25.10;53.80;;;;;;5067912;28;20471;-49
2022/08/28 12:34:51;;;;;;;4.53;2.70;;;25.10;53.70;;;;;;5085205;28;20849;-49
2022/08/28 12:37:51;;;;;;;3.37;2.50;;;25.10;54.30;;;;;;5071690;28;20463;-49
2022/08/28 12:40:20;;;;;;;5.30;2.67;;;25.10;54.00;;;;;;5052589;28;20555;-49
2022/08/28 12:42:52;;;;;;;3.87;2.10;;;25.20;53.90;;;;;;5072273;28;20824;-49
2022/08/28 12:45:36;;;;;;;2.97;2.10;;;25.20;53.40;;;;;;5053331;28;20456;-49
2022/08/28 12:48:22;;;;;;;5.13;2.87;;;25.20;53.00;;;;;;5081632;28;20517;-49
2022/08/28 12:51:07;;;;;;;3.00;2.43;;;25.30;52.50;;;;;;5075933;28;20460;-49
2022/08/28 12:53:58;;;;;;;4.63;2.33;;;25.30;51.70;;;;;;5075751;28;20488;-49
2022/08/28 12:56:31;;;;;;;7.77;2.40;;;25.40;52.20;;;;;;5067221;28;20459;-49
2022/08/28 12:59:24;;;;;;;4.63;2.30;;;25.50;52.40;;;;;;5068956;28;21430;-49
2022/08/28 13:02:00;;;;;;;3.60;2.47;;;25.50;52.00;;;;;;5081288;28;20455;-49
2022/08/28 13:04:32;;;;;;;2.67;2.30;;;25.50;52.00;;;;;;5084448;28;21131;-49
2022/08/28 13:07:10;;;;;;;2.73;2.47;;;25.50;52.30;;;;;;5084470;28;20805;-49
2022/08/28 13:09:43;;;;;;;2.63;2.37;;;25.50;51.50;;;;;;5087987;28;20464;-49
2022/08/28 13:12:19;;;;;;;5.30;2.63;;;25.40;52.30;;;;;;5066735;28;20464;-49
2022/08/28 13:14:46;;;;;;;2.93;2.00;;;25.40;51.80;;;;;;5053793;28;20450;-49
2022/08/28 13:17:34;;;;;;;4.87;3.40;;;25.40;52.70;;;;;;5088313;28;20479;-49
2022/08/28 13:20:06;;;;;;;2.73;2.20;;;25.50;52.20;;;;;;5083588;28;20459;-49
2022/08/28 13:22:39;;;;;;;2.03;1.87;;;25.50;51.80;;;;;;5085424;28;20522;-49
2022/08/28 13:25:18;;;;;;;2.77;2.57;;;25.50;51.60;;;;;;5086825;28;20965;-49